Time;durP1;ratioP1;P1;durP2;ratioP2;P2;SDS_P1;SDS_P2;PMS_P1;PMS_P2;Temp;Humidity;BMP_temperature;BMP_pressure;BME280_temperature;BME280_humidity;BME280_pressure;Samples;Min_cycle;Max_cycle;Signal;HPM_P1;HPM_P2
2023/05/05 00:01:29;;;;;;;8.73;7.20;;;18.10;99.90;;;;;;4964922;28;20205;-83
2023/05/05 00:03:56;;;;;;;8.27;7.40;;;18.10;99.90;;;;;;4953782;28;20233;-83
2023/05/05 00:06:23;;;;;;;10.23;7.60;;;18.10;99.90;;;;;;4951674;28;20807;-82
2023/05/05 00:08:50;;;;;;;8.40;7.50;;;18.10;99.90;;;;;;4968119;28;20658;-83
2023/05/05 00:11:17;;;;;;;9.47;7.03;;;18.10;99.90;;;;;;4949735;28;20202;-84
2023/05/05 00:13:44;;;;;;;8.87;7.83;;;17.90;99.90;;;;;;4968049;28;20288;-85
2023/05/05 00:16:11;;;;;;;8.97;8.07;;;17.80;99.90;;;;;;4952151;28;20202;-83
2023/05/05 00:18:38;;;;;;;12.47;8.57;;;17.80;99.90;;;;;;4985108;28;20221;-84
2023/05/05 00:21:05;;;;;;;14.17;8.83;;;17.90;99.90;;;;;;4954649;28;20198;-82
2023/05/05 00:23:32;;;;;;;10.53;8.43;;;17.90;99.90;;;;;;4952492;28;20285;-83
2023/05/05 00:25:59;;;;;;;9.10;7.90;;;18.00;99.90;;;;;;4952289;28;20685;-83
2023/05/05 00:28:26;;;;;;;10.37;8.70;;;17.90;99.90;;;;;;4952771;28;20714;-83
2023/05/05 00:30:53;;;;;;;11.00;9.53;;;17.90;99.90;;;;;;4952898;28;20211;-82
2023/05/05 00:33:20;;;;;;;17.10;10.23;;;17.80;99.90;;;;;;4946259;28;20584;-83
2023/05/05 00:35:48;;;;;;;12.23;9.03;;;17.70;99.90;;;;;;4955107;28;20241;-83
2023/05/05 00:38:15;;;;;;;13.57;9.43;;;17.80;99.90;;;;;;4953643;28;20243;-83
2023/05/05 00:40:42;;;;;;;10.57;8.83;;;17.80;99.90;;;;;;4969163;28;20754;-83
2023/05/05 00:43:09;;;;;;;11.30;9.10;;;17.60;99.90;;;;;;4966501;28;20209;-84
2023/05/05 00:45:37;;;;;;;10.23;8.43;;;17.60;99.90;;;;;;4953038;28;20647;-82
2023/05/05 00:48:05;;;;;;;9.30;8.23;;;17.50;99.90;;;;;;4968596;28;20751;-83
2023/05/05 00:50:33;;;;;;;10.10;8.37;;;17.60;99.90;;;;;;4954432;28;20702;-83
2023/05/05 00:53:02;;;;;;;10.07;8.40;;;17.60;99.90;;;;;;4966127;28;20254;-83
2023/05/05 00:55:30;;;;;;;11.97;8.53;;;17.40;99.90;;;;;;4981276;28;20645;-84
2023/05/05 00:57:58;;;;;;;9.90;8.23;;;17.40;99.90;;;;;;4968610;28;20204;-84
2023/05/05 01:00:26;;;;;;;10.90;8.67;;;17.30;99.90;;;;;;4962527;28;20258;-84
2023/05/05 01:02:53;;;;;;;10.47;8.50;;;17.30;99.90;;;;;;4963629;28;20239;-84
2023/05/05 01:05:22;;;;;;;10.40;8.23;;;17.20;99.90;;;;;;4950300;28;20563;-84
2023/05/05 01:08:12;;;;;;;11.33;8.47;;;17.10;99.90;;;;;;4980302;28;20205;-84
2023/05/05 01:10:42;;;;;;;12.97;9.17;;;16.80;99.90;;;;;;4960711;28;20205;-85
2023/05/05 01:13:38;;;;;;;10.93;8.20;;;16.90;99.90;;;;;;4986497;28;20226;-85
2023/05/05 01:16:20;;;;;;;7.90;6.80;;;16.90;99.90;;;;;;4965524;28;20218;-84
2023/05/05 01:19:06;;;;;;;10.03;6.47;;;16.70;99.90;;;;;;4964447;28;20321;-84
2023/05/05 01:21:40;;;;;;;6.43;5.63;;;16.70;99.90;;;;;;4981279;28;20312;-84
2023/05/05 01:24:32;;;;;;;5.60;5.00;;;16.80;99.90;;;;;;4968991;28;20271;-84
2023/05/05 01:27:17;;;;;;;4.80;4.27;;;16.90;99.90;;;;;;4959654;28;20194;-83
2023/05/05 01:30:02;;;;;;;6.37;4.50;;;17.00;99.90;;;;;;4965036;28;20218;-84
2023/05/05 01:32:34;;;;;;;5.80;4.67;;;17.10;99.90;;;;;;4971055;28;20370;-84
2023/05/05 01:35:19;;;;;;;7.07;4.60;;;17.10;99.90;;;;;;4980075;28;20247;-84
2023/05/05 01:38:01;;;;;;;6.80;4.87;;;17.20;99.90;;;;;;4982660;28;20198;-86
2023/05/05 01:40:37;;;;;;;5.37;4.43;;;17.00;99.90;;;;;;5007165;28;20205;-84
2023/05/05 01:43:06;;;;;;;5.37;4.27;;;16.90;99.90;;;;;;4992335;28;20205;-84
2023/05/05 01:45:37;;;;;;;4.60;4.10;;;16.70;99.90;;;;;;4978525;28;20216;-85
2023/05/05 01:48:06;;;;;;;4.10;3.60;;;16.60;99.90;;;;;;5005447;28;20213;-85
2023/05/05 01:50:34;;;;;;;4.57;3.80;;;16.60;99.90;;;;;;5009754;28;20506;-84
2023/05/05 01:53:03;;;;;;;6.20;3.93;;;16.70;99.90;;;;;;4993594;28;20206;-85
2023/05/05 01:55:31;;;;;;;4.93;3.80;;;16.60;99.90;;;;;;4979049;28;20209;-85
2023/05/05 01:58:00;;;;;;;3.77;3.37;;;16.60;99.90;;;;;;4993575;28;20192;-86
2023/05/05 02:00:29;;;;;;;4.77;3.23;;;16.70;99.90;;;;;;4991375;28;20255;-84
2023/05/05 02:02:58;;;;;;;4.53;3.37;;;16.70;99.90;;;;;;5014081;28;20202;-85
2023/05/05 02:05:25;;;;;;;3.67;2.87;;;16.70;99.90;;;;;;5010489;28;20225;-84
2023/05/05 02:07:57;;;;;;;3.43;2.70;;;16.70;99.90;;;;;;5015265;28;20412;-85
2023/05/05 02:10:25;;;;;;;3.30;3.00;;;16.40;99.90;;;;;;4995459;28;20302;-85
2023/05/05 02:12:52;;;;;;;3.50;3.20;;;16.30;99.90;;;;;;5007064;28;20284;-84
2023/05/05 02:15:22;;;;;;;3.93;2.97;;;16.40;99.90;;;;;;4973562;28;20222;-85
2023/05/05 02:17:51;;;;;;;4.77;3.00;;;16.40;99.90;;;;;;4974034;28;20241;-82
2023/05/05 02:20:19;;;;;;;3.50;2.67;;;16.30;99.90;;;;;;4970398;28;20304;-84
2023/05/05 02:22:46;;;;;;;3.73;2.90;;;16.20;99.90;;;;;;4952592;28;20206;-83
2023/05/05 02:25:13;;;;;;;3.67;2.70;;;16.10;99.90;;;;;;4955134;28;20293;-83
2023/05/05 02:27:43;;;;;;;3.63;2.50;;;15.90;99.90;;;;;;4969824;28;20261;-83
2023/05/05 02:30:16;;;;;;;3.40;2.53;;;15.90;99.90;;;;;;4968695;28;20202;-82
2023/05/05 02:32:55;;;;;;;3.57;2.70;;;15.80;99.90;;;;;;4969065;28;20651;-83
2023/05/05 02:35:31;;;;;;;4.33;2.40;;;15.80;99.90;;;;;;4963233;28;20248;-81
2023/05/05 02:38:01;;;;;;;2.97;2.30;;;15.80;99.90;;;;;;4965260;28;20329;-82
2023/05/05 02:40:32;;;;;;;2.80;2.20;;;15.70;99.90;;;;;;4963536;28;20285;-83
2023/05/05 02:43:03;;;;;;;4.40;2.07;;;15.40;99.90;;;;;;4969556;28;20725;-85
2023/05/05 02:45:30;;;;;;;2.73;2.03;;;15.30;99.90;;;;;;4970206;28;20323;-83
2023/05/05 02:48:02;;;;;;;3.10;1.90;;;15.30;99.90;;;;;;4955515;28;20194;-83
2023/05/05 02:50:32;;;;;;;2.53;1.70;;;15.10;99.90;;;;;;4966426;28;20198;-83
2023/05/05 02:53:00;;;;;;;3.53;1.70;;;15.10;99.90;;;;;;4945986;28;20253;-83
2023/05/05 02:55:36;;;;;;;2.43;1.93;;;15.00;99.90;;;;;;4945201;28;20212;-84
2023/05/05 02:58:15;;;;;;;3.77;1.97;;;14.90;99.90;;;;;;4966776;28;20209;-84
2023/05/05 03:00:54;;;;;;;3.87;2.17;;;14.90;99.90;;;;;;4964298;28;20227;-84
2023/05/05 03:03:35;;;;;;;2.30;2.00;;;15.00;99.90;;;;;;4965228;28;20271;-85
2023/05/05 03:06:08;;;;;;;4.63;2.10;;;15.00;99.90;;;;;;4963508;28;20216;-83
2023/05/05 03:08:47;;;;;;;4.03;2.13;;;14.90;99.90;;;;;;4983290;28;20285;-83
2023/05/05 03:11:43;;;;;;;2.10;1.90;;;15.00;99.90;;;;;;4963510;28;20236;-83
2023/05/05 03:14:17;;;;;;;2.63;1.80;;;15.00;99.90;;;;;;4959335;28;20292;-83
2023/05/05 03:16:45;;;;;;;4.37;2.20;;;14.90;99.90;;;;;;4984989;28;20692;-85
2023/05/05 03:19:15;;;;;;;3.03;1.90;;;14.90;99.90;;;;;;4968620;28;20688;-83
2023/05/05 03:21:42;;;;;;;3.27;1.90;;;14.70;99.90;;;;;;4968050;28;20237;-82
2023/05/05 03:24:20;;;;;;;5.10;1.73;;;14.90;99.90;;;;;;4984145;28;20206;-82
2023/05/05 03:26:48;;;;;;;2.67;1.97;;;15.00;99.90;;;;;;4951871;28;20206;-83
2023/05/05 03:29:15;;;;;;;1.93;1.60;;;14.90;99.90;;;;;;4958908;28;20586;-83
2023/05/05 03:31:42;;;;;;;3.10;1.57;;;14.70;99.90;;;;;;4971324;28;20245;-83
2023/05/05 03:34:10;;;;;;;4.27;2.03;;;14.50;99.90;;;;;;4936455;28;20519;-83
2023/05/05 03:36:37;;;;;;;2.00;1.70;;;14.60;99.90;;;;;;4948926;28;20202;-84
2023/05/05 03:39:04;;;;;;;2.83;1.63;;;14.80;99.90;;;;;;4950485;28;20198;-83
2023/05/05 03:41:31;;;;;;;4.77;1.97;;;14.70;99.90;;;;;;4951356;28;20211;-85
2023/05/05 03:43:58;;;;;;;4.07;2.00;;;14.70;99.90;;;;;;4945354;28;20580;-83
2023/05/05 03:46:25;;;;;;;1.77;1.67;;;14.60;99.90;;;;;;4963572;28;20246;-85
2023/05/05 03:48:55;;;;;;;3.30;2.60;;;14.60;99.90;;;;;;4949678;28;20687;-84
2023/05/05 03:51:23;;;;;;;3.23;2.20;;;14.60;99.90;;;;;;4949614;28;20206;-83
2023/05/05 03:53:51;;;;;;;3.00;2.17;;;14.70;99.90;;;;;;4948966;28;20341;-83
2023/05/05 03:56:18;;;;;;;3.40;2.07;;;14.70;99.90;;;;;;4923180;28;20213;-83
2023/05/05 03:58:45;;;;;;;2.80;2.17;;;14.60;99.90;;;;;;4936224;28;20697;-83
2023/05/05 04:01:12;;;;;;;3.60;2.40;;;14.70;99.90;;;;;;4919112;28;20714;-83
2023/05/05 04:03:38;;;;;;;3.13;2.37;;;14.60;99.90;;;;;;4933747;28;20241;-83
2023/05/05 04:06:06;;;;;;;5.73;2.40;;;14.50;99.90;;;;;;4933070;28;20208;-83
2023/05/05 04:08:33;;;;;;;3.57;2.70;;;14.60;99.90;;;;;;4968004;28;20533;-83
2023/05/05 04:11:02;;;;;;;3.10;2.27;;;14.60;99.90;;;;;;4935911;28;20217;-83
2023/05/05 04:13:29;;;;;;;2.80;2.50;;;14.50;99.90;;;;;;4932169;28;20201;-83
2023/05/05 04:15:58;;;;;;;6.10;3.30;;;14.50;99.90;;;;;;4951499;28;20684;-84
2023/05/05 04:18:25;;;;;;;3.87;2.40;;;14.50;99.90;;;;;;4934618;28;20210;-83
2023/05/05 04:20:52;;;;;;;3.13;2.83;;;14.50;99.90;;;;;;4951723;28;20619;-83
2023/05/05 04:23:19;;;;;;;7.50;3.60;;;14.50;99.90;;;;;;4949758;28;20712;-83
2023/05/05 04:25:46;;;;;;;4.33;3.43;;;14.40;99.90;;;;;;4952070;28;20230;-84
2023/05/05 04:28:13;;;;;;;6.90;3.30;;;14.40;99.90;;;;;;4951197;28;20293;-85
2023/05/05 04:30:40;;;;;;;6.77;3.73;;;14.60;99.90;;;;;;4951041;28;20614;-85
2023/05/05 04:33:07;;;;;;;3.97;3.53;;;14.40;99.90;;;;;;4912960;28;20230;-84
2023/05/05 04:35:34;;;;;;;4.97;3.30;;;14.20;99.90;;;;;;4961555;28;20327;-84
2023/05/05 04:38:01;;;;;;;7.57;4.30;;;14.30;99.90;;;;;;4966909;28;20214;-84
2023/05/05 04:40:28;;;;;;;4.10;3.60;;;14.30;99.90;;;;;;4969697;28;20551;-83
2023/05/05 04:42:55;;;;;;;5.30;4.17;;;14.10;99.90;;;;;;4965657;28;20215;-83
2023/05/05 04:45:23;;;;;;;4.53;3.77;;;14.30;99.90;;;;;;4988665;28;20912;-85
2023/05/05 04:47:50;;;;;;;8.97;4.90;;;14.30;99.90;;;;;;4970439;28;20237;-84
2023/05/05 04:50:17;;;;;;;6.30;4.40;;;14.40;99.90;;;;;;4955135;28;20817;-85
2023/05/05 04:52:44;;;;;;;8.00;5.47;;;14.40;99.90;;;;;;4969271;28;20213;-84
2023/05/05 04:55:11;;;;;;;6.03;4.93;;;14.40;99.90;;;;;;4968571;28;20213;-84
2023/05/05 04:57:38;;;;;;;8.43;4.87;;;14.50;99.90;;;;;;4968073;28;20636;-85
2023/05/05 05:00:06;;;;;;;7.43;5.40;;;14.50;99.90;;;;;;4953337;28;20262;-84
2023/05/05 05:02:33;;;;;;;7.23;5.33;;;14.50;99.90;;;;;;4965621;28;20554;-80
2023/05/05 05:05:00;;;;;;;7.07;5.23;;;14.40;99.90;;;;;;4965443;28;20232;-83
2023/05/05 05:07:27;;;;;;;7.57;4.97;;;14.50;99.90;;;;;;4952786;28;20205;-82
2023/05/05 05:09:55;;;;;;;5.83;5.13;;;14.60;99.90;;;;;;4954953;28;20210;-84
2023/05/05 05:12:22;;;;;;;9.07;6.10;;;14.60;99.90;;;;;;4953844;28;20218;-83
2023/05/05 05:14:48;;;;;;;6.50;5.80;;;14.40;99.90;;;;;;4970337;28;20272;-85
2023/05/05 05:17:15;;;;;;;7.10;6.40;;;14.30;99.90;;;;;;4969047;28;20469;-85
2023/05/05 05:19:42;;;;;;;9.43;6.77;;;14.40;99.90;;;;;;4968101;28;20257;-85
2023/05/05 05:22:09;;;;;;;7.90;6.83;;;14.50;99.90;;;;;;4967519;28;20567;-85
2023/05/05 05:24:36;;;;;;;7.17;6.47;;;14.60;99.90;;;;;;4986912;28;20230;-84
2023/05/05 05:27:06;;;;;;;9.83;7.27;;;14.70;99.90;;;;;;4969227;28;20288;-84
2023/05/05 05:29:35;;;;;;;9.70;6.70;;;14.80;99.90;;;;;;4987259;28;20212;-84
2023/05/05 05:32:02;;;;;;;7.73;6.93;;;14.70;99.90;;;;;;4970898;28;20229;-85
2023/05/05 05:34:30;;;;;;;11.27;8.07;;;14.70;99.90;;;;;;4985105;28;20301;-85
2023/05/05 05:36:57;;;;;;;9.13;7.90;;;14.80;99.90;;;;;;4983169;28;20640;-85
2023/05/05 05:39:23;;;;;;;10.17;8.77;;;14.80;99.90;;;;;;4968442;28;20244;-85
2023/05/05 05:41:50;;;;;;;10.30;8.13;;;14.70;99.90;;;;;;4965215;28;20205;-85
2023/05/05 05:44:17;;;;;;;11.07;8.10;;;14.90;99.90;;;;;;4949377;28;20274;-85
2023/05/05 05:46:45;;;;;;;9.57;7.73;;;15.10;99.90;;;;;;4954578;28;20324;-85
2023/05/05 05:49:12;;;;;;;11.00;9.37;;;15.20;99.90;;;;;;4968332;28;20205;-85
2023/05/05 05:51:39;;;;;;;12.50;8.73;;;15.30;99.90;;;;;;4937002;28;20209;-85
2023/05/05 05:54:06;;;;;;;11.63;9.43;;;15.10;99.90;;;;;;4950028;28;20288;-85
2023/05/05 05:56:33;;;;;;;10.73;9.00;;;15.10;99.90;;;;;;4954032;28;20251;-85
2023/05/05 05:59:00;;;;;;;12.03;9.67;;;15.20;99.90;;;;;;4952293;28;20205;-84
2023/05/05 06:01:27;;;;;;;12.77;8.67;;;15.20;99.90;;;;;;4943954;28;20611;-85
2023/05/05 06:03:54;;;;;;;12.77;9.40;;;15.20;99.90;;;;;;4952895;28;20238;-85
2023/05/05 06:06:21;;;;;;;12.90;9.93;;;15.20;99.90;;;;;;4944657;28;20221;-84
2023/05/05 06:08:48;;;;;;;13.80;9.70;;;15.20;99.90;;;;;;4952557;28;20661;-85
2023/05/05 06:11:15;;;;;;;13.00;10.03;;;15.40;99.90;;;;;;4953290;28;20301;-83
2023/05/05 06:13:42;;;;;;;12.13;10.43;;;15.40;99.90;;;;;;4935306;28;20268;-83
2023/05/05 06:16:09;;;;;;;14.53;10.50;;;15.50;99.90;;;;;;4953908;28;20237;-84
2023/05/05 06:18:36;;;;;;;12.90;10.17;;;15.60;99.90;;;;;;4953207;28;20269;-84
2023/05/05 06:21:03;;;;;;;12.00;9.13;;;15.60;99.90;;;;;;4949195;28;20217;-84
2023/05/05 06:23:30;;;;;;;12.23;10.10;;;15.80;99.90;;;;;;4951426;28;20205;-84
2023/05/05 06:25:57;;;;;;;12.93;10.17;;;15.90;99.90;;;;;;4935456;28;20325;-83
2023/05/05 06:28:24;;;;;;;13.20;10.30;;;16.10;99.90;;;;;;4955768;28;20202;-83
2023/05/05 06:30:51;;;;;;;12.23;9.37;;;16.20;99.90;;;;;;4954128;28;20201;-84
2023/05/05 06:33:18;;;;;;;12.70;10.40;;;16.40;99.90;;;;;;4953840;28;20301;-85
2023/05/05 06:35:46;;;;;;;12.63;9.73;;;16.20;99.90;;;;;;4940883;28;20347;-84
2023/05/05 06:38:13;;;;;;;10.33;9.10;;;16.20;99.90;;;;;;4972587;28;20685;-85
2023/05/05 06:40:40;;;;;;;14.50;9.63;;;16.20;99.90;;;;;;4955492;28;20568;-85
2023/05/05 06:43:07;;;;;;;13.40;9.27;;;16.30;99.90;;;;;;4954125;28;20216;-82
2023/05/05 06:45:34;;;;;;;11.17;8.77;;;16.60;99.90;;;;;;4956335;28;20214;-83
2023/05/05 06:48:01;;;;;;;13.77;8.73;;;16.70;99.90;;;;;;4955823;28;20202;-85
2023/05/05 06:50:28;;;;;;;11.30;8.53;;;16.80;99.90;;;;;;4941557;28;20210;-83
2023/05/05 06:52:55;;;;;;;11.63;7.80;;;17.00;99.90;;;;;;4969282;28;20321;-83
2023/05/05 06:55:22;;;;;;;12.50;8.20;;;17.60;99.90;;;;;;4956765;28;20553;-87
2023/05/05 06:57:49;;;;;;;12.87;8.33;;;17.60;99.90;;;;;;4954377;28;20204;-86
2023/05/05 07:00:17;;;;;;;9.23;7.37;;;17.70;99.90;;;;;;4971620;28;20205;-88
2023/05/05 07:02:46;;;;;;;20.70;9.50;;;17.60;99.90;;;;;;4938519;28;20201;-84
2023/05/05 07:05:13;;;;;;;14.37;8.40;;;17.50;99.90;;;;;;4955872;28;20575;-83
2023/05/05 07:07:50;;;;;;;9.27;7.03;;;17.80;99.90;;;;;;4941864;28;20230;-83
2023/05/05 07:10:17;;;;;;;8.20;6.27;;;17.70;99.90;;;;;;4950321;28;20879;-83
2023/05/05 07:12:45;;;;;;;7.67;6.00;;;18.00;99.90;;;;;;4954363;28;20206;-82
2023/05/05 07:15:12;;;;;;;9.73;6.67;;;18.50;99.90;;;;;;4616366;28;10000187;-86
2023/05/05 07:17:56;;;;;;;6.70;5.97;;;18.80;99.90;;;;;;4972514;28;20479;-84
2023/05/05 07:20:23;;;;;;;6.13;5.53;;;18.60;99.90;;;;;;4979780;28;20212;-83
2023/05/05 07:22:50;;;;;;;9.47;6.40;;;18.60;99.90;;;;;;4950111;28;20202;-84
2023/05/05 07:25:18;;;;;;;7.33;6.20;;;18.40;99.90;;;;;;4937070;28;20498;-84
2023/05/05 07:27:45;;;;;;;7.63;5.23;;;18.40;99.90;;;;;;4968852;28;20666;-85
2023/05/05 07:30:12;;;;;;;11.33;7.00;;;18.30;99.90;;;;;;4964471;28;20220;-86
2023/05/05 07:32:44;;;;;;;6.97;5.60;;;18.60;99.90;;;;;;4967773;28;20595;-86
2023/05/05 07:35:11;;;;;;;7.10;5.77;;;18.50;99.90;;;;;;4963263;28;20348;-84
2023/05/05 07:37:38;;;;;;;6.33;5.67;;;18.60;99.90;;;;;;4975341;28;20243;-79
2023/05/05 07:40:06;;;;;;;9.23;6.47;;;18.30;99.90;;;;;;4961331;28;20253;-81
2023/05/05 07:42:34;;;;;;;8.47;5.90;;;18.20;99.90;;;;;;4979060;28;20228;-80
2023/05/05 07:45:01;;;;;;;16.87;7.40;;;17.90;99.90;;;;;;4955864;28;20202;-79
2023/05/05 07:47:28;;;;;;;16.07;6.30;;;18.10;99.90;;;;;;4955572;28;20331;-79
2023/05/05 07:49:55;;;;;;;9.73;6.00;;;18.30;99.90;;;;;;4948842;28;20209;-81
2023/05/05 07:52:22;;;;;;;18.73;7.87;;;18.50;99.90;;;;;;4977577;28;20824;-80
2023/05/05 07:55:09;;;;;;;8.40;5.13;;;18.40;99.90;;;;;;4965378;28;20239;-79
2023/05/05 07:57:39;;;;;;;8.00;5.00;;;18.50;99.90;;;;;;4967546;28;20628;-79
2023/05/05 08:00:06;;;;;;;7.03;5.40;;;18.60;99.90;;;;;;4945591;28;20205;-80
2023/05/05 08:02:34;;;;;;;7.67;5.10;;;18.70;99.90;;;;;;4929624;28;20237;-80
2023/05/05 08:05:01;;;;;;;6.07;4.50;;;18.50;99.90;;;;;;4956228;28;20233;-79
2023/05/05 08:07:28;;;;;;;6.67;5.13;;;18.30;99.90;;;;;;4964289;28;20625;-79
2023/05/05 08:09:56;;;;;;;6.87;5.10;;;18.30;99.90;;;;;;4964583;28;20213;-80
2023/05/05 08:12:23;;;;;;;7.27;5.20;;;18.90;99.90;;;;;;4963185;28;20609;-79
2023/05/05 08:14:50;;;;;;;5.87;4.67;;;19.20;99.90;;;;;;4973355;28;20299;-79
2023/05/05 08:17:17;;;;;;;7.67;4.50;;;19.20;99.90;;;;;;4957935;28;20666;-80
2023/05/05 08:19:44;;;;;;;7.83;5.33;;;19.00;99.90;;;;;;4959853;28;20224;-79
2023/05/05 08:22:11;;;;;;;11.47;5.60;;;18.80;99.90;;;;;;4948348;28;20265;-79
2023/05/05 08:24:38;;;;;;;6.23;5.23;;;19.00;99.90;;;;;;4945829;28;20787;-80
2023/05/05 08:27:04;;;;;;;10.03;6.10;;;19.10;99.90;;;;;;4965353;28;20221;-80
2023/05/05 08:29:31;;;;;;;6.87;4.87;;;19.00;99.90;;;;;;4960152;28;20202;-79
2023/05/05 08:31:58;;;;;;;7.90;4.57;;;19.50;99.90;;;;;;4945013;28;20240;-79
2023/05/05 08:34:26;;;;;;;7.00;3.83;;;19.30;99.90;;;;;;4930719;28;20307;-79
2023/05/05 08:36:53;;;;;;;4.73;3.10;;;19.40;99.90;;;;;;4943573;28;20199;-79
2023/05/05 08:39:20;;;;;;;14.77;4.20;;;19.70;99.90;;;;;;4947433;28;20216;-79
2023/05/05 08:41:47;;;;;;;6.97;4.23;;;19.60;99.90;;;;;;4929891;28;20870;-79
2023/05/05 08:44:14;;;;;;;7.23;4.70;;;19.60;99.90;;;;;;4960848;28;20710;-78
2023/05/05 08:46:42;;;;;;;6.57;5.10;;;19.50;99.90;;;;;;4945545;28;20233;-79
2023/05/05 08:49:14;;;;;;;7.13;4.93;;;19.50;99.90;;;;;;4943242;28;20542;-79
2023/05/05 08:51:43;;;;;;;10.07;5.10;;;19.30;99.90;;;;;;4965059;28;20203;-80
2023/05/05 08:54:16;;;;;;;7.03;4.43;;;19.30;99.90;;;;;;4942178;28;20574;-83
2023/05/05 08:56:48;;;;;;;6.70;4.20;;;19.10;99.90;;;;;;4968883;28;20253;-80
2023/05/05 08:59:16;;;;;;;5.93;3.00;;;18.90;99.90;;;;;;4948995;28;20344;-80
2023/05/05 09:01:43;;;;;;;4.93;3.20;;;19.00;99.90;;;;;;4949580;28;20757;-80
2023/05/05 09:04:10;;;;;;;6.03;3.00;;;19.30;99.90;;;;;;4927534;28;20285;-81
2023/05/05 09:06:37;;;;;;;4.93;3.00;;;19.30;99.90;;;;;;4946478;28;20210;-81
2023/05/05 09:09:05;;;;;;;5.10;3.00;;;19.10;99.90;;;;;;4939571;28;20686;-81
2023/05/05 09:11:34;;;;;;;5.17;3.00;;;19.10;99.90;;;;;;4952255;28;20218;-81
2023/05/05 09:14:00;;;;;;;10.77;3.67;;;19.10;99.90;;;;;;4958838;28;20203;-81
2023/05/05 09:16:27;;;;;;;7.40;3.67;;;19.00;99.90;;;;;;4955472;28;20316;-81
2023/05/05 09:19:04;;;;;;;4.70;3.20;;;19.00;99.90;;;;;;4961721;28;20224;-81
2023/05/05 09:21:31;;;;;;;8.80;2.93;;;18.90;99.90;;;;;;4939096;28;20212;-81
2023/05/05 09:24:10;;;;;;;4.70;3.03;;;18.90;99.90;;;;;;4940297;28;20222;-80
2023/05/05 09:26:40;;;;;;;6.00;2.63;;;18.80;99.90;;;;;;4945093;28;20437;-80
2023/05/05 09:29:07;;;;;;;4.70;3.30;;;19.10;99.90;;;;;;4942972;28;20237;-79
2023/05/05 09:31:36;;;;;;;4.63;3.13;;;19.10;99.90;;;;;;4946431;28;20715;-79
2023/05/05 09:34:13;;;;;;;4.47;3.47;;;18.90;99.90;;;;;;4935552;28;20203;-80
2023/05/05 09:36:42;;;;;;;5.23;2.80;;;18.90;99.90;;;;;;4965334;28;20233;-80
2023/05/05 09:39:11;;;;;;;4.97;3.20;;;18.90;99.90;;;;;;4963332;28;20237;-80
2023/05/05 09:41:40;;;;;;;4.17;3.63;;;19.20;99.90;;;;;;4917483;28;20270;-80
2023/05/05 09:44:07;;;;;;;4.10;3.27;;;19.20;99.90;;;;;;4961065;28;20588;-81
2023/05/05 09:46:34;;;;;;;4.63;3.23;;;18.90;99.90;;;;;;4956092;28;20220;-80
2023/05/05 09:49:16;;;;;;;5.80;3.43;;;18.70;99.90;;;;;;4961322;28;20206;-81
2023/05/05 09:51:45;;;;;;;5.47;2.23;;;18.70;99.90;;;;;;4955161;28;20235;-81
2023/05/05 09:54:26;;;;;;;3.90;1.83;;;18.90;99.90;;;;;;4961969;28;20653;-81
2023/05/05 09:56:57;;;;;;;5.50;1.90;;;18.90;99.90;;;;;;4980401;28;20201;-79
2023/05/05 09:59:24;;;;;;;1.97;1.70;;;18.80;99.90;;;;;;4950091;28;20300;-79
2023/05/05 10:01:51;;;;;;;3.90;1.70;;;18.80;99.90;;;;;;4949611;28;20261;-80
2023/05/05 10:04:23;;;;;;;3.10;1.67;;;18.90;99.90;;;;;;4950578;28;20765;-80
2023/05/05 10:06:50;;;;;;;2.40;1.80;;;18.80;99.90;;;;;;4965860;28;20230;-81
2023/05/05 10:09:17;;;;;;;5.17;2.10;;;18.90;99.90;;;;;;4953290;28;20205;-81
2023/05/05 10:11:46;;;;;;;4.40;1.83;;;18.70;99.90;;;;;;4951144;28;20206;-80
2023/05/05 10:14:16;;;;;;;5.03;2.27;;;18.90;99.90;;;;;;4980964;28;20302;-80
2023/05/05 10:16:48;;;;;;;5.20;2.97;;;19.10;99.90;;;;;;4979129;28;20214;-80
2023/05/05 10:19:22;;;;;;;5.70;2.90;;;19.00;99.90;;;;;;4937802;28;20245;-81
2023/05/05 10:21:50;;;;;;;4.03;2.80;;;19.00;99.90;;;;;;4966561;28;20205;-82
2023/05/05 10:24:49;;;;;;;5.93;2.77;;;19.00;99.90;;;;;;4961205;28;20216;-82
2023/05/05 10:27:19;;;;;;;7.23;3.23;;;18.90;99.90;;;;;;4970877;28;20222;-80
2023/05/05 10:30:06;;;;;;;6.23;3.50;;;18.80;99.90;;;;;;4977989;28;20914;-83
2023/05/05 10:32:37;;;;;;;6.47;3.70;;;18.50;99.90;;;;;;4962895;28;21393;-80
2023/05/05 10:35:09;;;;;;;12.20;5.30;;;18.20;99.90;;;;;;4963478;28;20687;-81
2023/05/05 10:37:38;;;;;;;9.60;5.10;;;17.90;99.90;;;;;;4964485;28;20233;-79
2023/05/05 10:40:06;;;;;;;6.20;3.93;;;17.80;99.90;;;;;;4964666;28;20281;-80
2023/05/05 10:42:39;;;;;;;4.93;2.70;;;17.40;99.90;;;;;;4941671;28;20275;-78
2023/05/05 10:45:07;;;;;;;4.70;2.33;;;17.20;99.90;;;;;;4956585;28;21186;-79
2023/05/05 10:47:35;;;;;;;2.90;1.53;;;16.60;99.90;;;;;;4962704;28;20220;-79
2023/05/05 10:50:13;;;;;;;4.43;1.80;;;16.30;99.90;;;;;;4961584;28;20201;-83
2023/05/05 10:53:08;;;;;;;3.30;1.70;;;16.00;99.90;;;;;;4954686;28;20654;-81
2023/05/05 10:55:51;;;;;;;2.83;1.30;;;15.80;99.90;;;;;;4979775;28;20211;-80
2023/05/05 10:58:34;;;;;;;3.00;1.07;;;15.90;99.90;;;;;;4975317;28;21196;-80
2023/05/05 11:01:35;;;;;;;5.00;2.23;;;15.80;99.90;;;;;;4968704;28;20209;-84
2023/05/05 11:04:19;;;;;;;3.60;2.00;;;16.00;99.90;;;;;;4978868;28;20215;-81
2023/05/05 11:07:26;;;;;;;3.83;1.80;;;15.70;99.90;;;;;;4993125;28;20228;-84
2023/05/05 11:09:57;;;;;;;5.40;1.80;;;15.60;99.90;;;;;;4985167;28;20194;-81
2023/05/05 11:12:24;;;;;;;2.63;1.70;;;15.70;99.90;;;;;;4985509;28;20187;-81
2023/05/05 11:15:36;;;;;;;3.37;1.70;;;15.70;99.90;;;;;;4953269;28;20204;-83
2023/05/05 11:18:05;;;;;;;6.00;1.40;;;15.70;99.90;;;;;;4975927;28;20188;-82
2023/05/05 11:20:39;;;;;;;2.93;1.40;;;15.70;99.90;;;;;;4990001;28;20258;-79
2023/05/05 11:23:06;;;;;;;3.03;2.10;;;15.70;99.90;;;;;;5001604;28;20234;-82
2023/05/05 11:25:34;;;;;;;3.63;1.90;;;15.80;99.90;;;;;;4986020;28;20206;-84
2023/05/05 11:28:10;;;;;;;5.07;2.13;;;15.70;99.90;;;;;;4999986;28;20212;-83
2023/05/05 11:31:00;;;;;;;6.07;2.03;;;15.60;99.90;;;;;;4986903;28;20438;-84
2023/05/05 11:33:39;;;;;;;1.93;1.50;;;15.50;99.90;;;;;;4987778;28;20285;-83
2023/05/05 11:36:07;;;;;;;4.33;1.80;;;15.40;99.90;;;;;;4975486;28;20230;-82
2023/05/05 11:38:49;;;;;;;7.97;1.53;;;15.00;99.90;;;;;;4979383;28;20720;-84
2023/05/05 11:41:32;;;;;;;4.83;1.57;;;14.90;99.90;;;;;;4973453;28;20256;-83
2023/05/05 11:44:13;;;;;;;3.37;1.10;;;14.80;99.90;;;;;;4970409;28;20292;-82
2023/05/05 11:47:03;;;;;;;4.70;1.40;;;14.90;99.90;;;;;;4967903;28;20236;-83
2023/05/05 11:49:35;;;;;;;1.80;1.30;;;14.80;99.90;;;;;;4952803;28;20239;-82
2023/05/05 11:52:03;;;;;;;4.10;1.73;;;15.10;99.90;;;;;;4959401;28;20213;-86
2023/05/05 11:54:31;;;;;;;2.67;1.50;;;15.20;99.90;;;;;;4972664;28;20323;-82
2023/05/05 11:57:07;;;;;;;1.90;1.20;;;15.20;99.90;;;;;;4962447;28;20236;-82
2023/05/05 11:59:36;;;;;;;2.27;1.57;;;14.90;99.90;;;;;;4940489;28;20825;-83
2023/05/05 12:02:03;;;;;;;7.37;1.70;;;15.10;99.90;;;;;;4973754;28;20202;-82
2023/05/05 12:04:30;;;;;;;1.97;1.33;;;15.10;99.90;;;;;;4958131;28;20282;-82
2023/05/05 12:06:58;;;;;;;3.73;1.80;;;15.20;99.90;;;;;;4960309;28;20948;-82
2023/05/05 12:09:26;;;;;;;2.90;1.60;;;14.90;99.90;;;;;;4973258;28;20210;-84
2023/05/05 12:11:56;;;;;;;2.53;1.50;;;14.80;99.90;;;;;;4958699;28;20202;-81
2023/05/05 12:14:25;;;;;;;5.03;2.00;;;14.90;99.90;;;;;;4973448;28;20205;-82
2023/05/05 12:17:07;;;;;;;2.00;1.80;;;14.70;99.90;;;;;;4952216;28;20259;-82
2023/05/05 12:19:34;;;;;;;2.10;1.90;;;14.80;99.90;;;;;;4951000;28;20287;-82
2023/05/05 12:22:03;;;;;;;3.27;1.93;;;15.00;99.90;;;;;;4942124;28;20198;-82
2023/05/05 12:24:30;;;;;;;4.17;2.23;;;15.00;99.90;;;;;;4948628;28;20202;-81
2023/05/05 12:27:10;;;;;;;2.40;1.77;;;15.10;99.90;;;;;;4944700;28;20270;-82
2023/05/05 12:29:38;;;;;;;5.17;2.20;;;15.10;99.90;;;;;;4973616;28;20268;-83
2023/05/05 12:32:05;;;;;;;4.40;2.37;;;15.10;99.90;;;;;;4916231;28;20256;-81
2023/05/05 12:34:32;;;;;;;3.40;2.47;;;14.80;99.90;;;;;;4921626;28;20247;-82
2023/05/05 12:37:00;;;;;;;4.53;2.57;;;14.90;99.90;;;;;;4922390;28;20293;-83
2023/05/05 12:39:35;;;;;;;4.40;2.30;;;15.10;99.90;;;;;;4944100;28;20264;-82
2023/05/05 12:42:05;;;;;;;4.93;2.43;;;15.10;99.90;;;;;;4939471;28;20612;-83
2023/05/05 12:44:36;;;;;;;3.23;2.53;;;15.30;99.90;;;;;;4921741;28;20287;-83
2023/05/05 12:47:03;;;;;;;2.53;2.33;;;15.30;99.90;;;;;;4942369;28;20213;-82
2023/05/05 12:49:33;;;;;;;4.23;3.20;;;15.10;99.90;;;;;;4944300;28;20264;-84
2023/05/05 12:52:00;;;;;;;4.20;2.90;;;15.10;99.90;;;;;;4940091;28;22611;-81
2023/05/05 12:54:30;;;;;;;4.57;3.30;;;15.40;99.90;;;;;;4930479;28;20209;-82
2023/05/05 12:56:57;;;;;;;4.73;3.33;;;15.50;99.90;;;;;;4960716;28;20756;-82
2023/05/05 12:59:24;;;;;;;5.97;3.40;;;15.70;99.90;;;;;;4944900;28;20203;-84